sensor_id;sensor_type;location;lat;lon;timestamp;temperature;humidity
28546;DHT22;15749;49.606;8.738;2022-07-30T00:01:12;25.80;77.60
28546;DHT22;15749;49.606;8.738;2022-07-30T00:04:00;25.80;79.10
28546;DHT22;15749;49.606;8.738;2022-07-30T00:06:56;25.70;78.00
28546;DHT22;15749;49.606;8.738;2022-07-30T00:09:57;25.70;78.60
28546;DHT22;15749;49.606;8.738;2022-07-30T00:13:02;25.70;78.70
28546;DHT22;15749;49.606;8.738;2022-07-30T00:15:52;25.70;78.10
28546;DHT22;15749;49.606;8.738;2022-07-30T00:18:41;25.60;78.60
28546;DHT22;15749;49.606;8.738;2022-07-30T00:21:30;25.60;78.60
28546;DHT22;15749;49.606;8.738;2022-07-30T00:24:26;25.60;78.50
28546;DHT22;15749;49.606;8.738;2022-07-30T00:27:15;25.60;78.00
28546;DHT22;15749;49.606;8.738;2022-07-30T00:30:03;25.60;78.80
28546;DHT22;15749;49.606;8.738;2022-07-30T00:32:52;25.60;78.90
28546;DHT22;15749;49.606;8.738;2022-07-30T00:35:43;25.60;79.80
28546;DHT22;15749;49.606;8.738;2022-07-30T00:38:32;25.50;79.20
28546;DHT22;15749;49.606;8.738;2022-07-30T00:41:21;25.50;79.00
28546;DHT22;15749;49.606;8.738;2022-07-30T00:44:09;25.50;79.00
28546;DHT22;15749;49.606;8.738;2022-07-30T00:46:59;25.50;79.00
28546;DHT22;15749;49.606;8.738;2022-07-30T00:49:48;25.50;79.10
28546;DHT22;15749;49.606;8.738;2022-07-30T00:52:36;25.50;79.10
28546;DHT22;15749;49.606;8.738;2022-07-30T00:55:25;25.40;79.10
28546;DHT22;15749;49.606;8.738;2022-07-30T00:58:14;25.40;79.00
28546;DHT22;15749;49.606;8.738;2022-07-30T01:01:06;25.40;79.20
28546;DHT22;15749;49.606;8.738;2022-07-30T01:03:54;25.40;79.20
28546;DHT22;15749;49.606;8.738;2022-07-30T01:06:46;25.40;79.20
28546;DHT22;15749;49.606;8.738;2022-07-30T01:09:35;25.40;79.20
28546;DHT22;15749;49.606;8.738;2022-07-30T01:12:25;25.30;79.40
28546;DHT22;15749;49.606;8.738;2022-07-30T01:15:15;25.30;79.60
28546;DHT22;15749;49.606;8.738;2022-07-30T01:18:05;25.30;79.70
28546;DHT22;15749;49.606;8.738;2022-07-30T01:20:59;25.30;79.40
28546;DHT22;15749;49.606;8.738;2022-07-30T01:23:52;25.30;78.90
28546;DHT22;15749;49.606;8.738;2022-07-30T01:26:51;25.30;79.30
28546;DHT22;15749;49.606;8.738;2022-07-30T01:29:42;25.30;78.60
28546;DHT22;15749;49.606;8.738;2022-07-30T01:32:33;25.20;78.20
28546;DHT22;15749;49.606;8.738;2022-07-30T01:35:26;25.20;78.20
28546;DHT22;15749;49.606;8.738;2022-07-30T01:38:18;25.20;78.20
28546;DHT22;15749;49.606;8.738;2022-07-30T01:41:10;25.20;78.70
28546;DHT22;15749;49.606;8.738;2022-07-30T01:44:01;25.10;78.80
28546;DHT22;15749;49.606;8.738;2022-07-30T01:46:52;25.10;78.80
28546;DHT22;15749;49.606;8.738;2022-07-30T01:49:41;25.00;78.70
28546;DHT22;15749;49.606;8.738;2022-07-30T01:52:32;25.00;78.60
28546;DHT22;15749;49.606;8.738;2022-07-30T01:55:24;25.00;78.40
28546;DHT22;15749;49.606;8.738;2022-07-30T01:58:17;25.00;78.10
28546;DHT22;15749;49.606;8.738;2022-07-30T02:01:11;25.00;78.10
28546;DHT22;15749;49.606;8.738;2022-07-30T02:04:01;24.90;78.00
28546;DHT22;15749;49.606;8.738;2022-07-30T02:06:58;24.90;77.80
28546;DHT22;15749;49.606;8.738;2022-07-30T02:09:54;24.90;77.40
28546;DHT22;15749;49.606;8.738;2022-07-30T02:12:49;24.90;78.00
28546;DHT22;15749;49.606;8.738;2022-07-30T02:15:44;24.80;77.80
28546;DHT22;15749;49.606;8.738;2022-07-30T02:18:42;24.80;78.40
28546;DHT22;15749;49.606;8.738;2022-07-30T02:21:37;24.80;78.80
28546;DHT22;15749;49.606;8.738;2022-07-30T02:24:37;24.80;78.50
28546;DHT22;15749;49.606;8.738;2022-07-30T02:27:27;24.70;78.80
28546;DHT22;15749;49.606;8.738;2022-07-30T02:30:18;24.70;78.40
28546;DHT22;15749;49.606;8.738;2022-07-30T02:33:09;24.70;78.70
28546;DHT22;15749;49.606;8.738;2022-07-30T02:36:00;24.70;79.10
28546;DHT22;15749;49.606;8.738;2022-07-30T02:38:57;24.70;79.00
28546;DHT22;15749;49.606;8.738;2022-07-30T02:41:45;24.60;79.00
28546;DHT22;15749;49.606;8.738;2022-07-30T02:44:36;24.60;79.10
28546;DHT22;15749;49.606;8.738;2022-07-30T02:47:26;24.60;78.60
28546;DHT22;15749;49.606;8.738;2022-07-30T02:50:24;24.60;78.90
28546;DHT22;15749;49.606;8.738;2022-07-30T02:53:15;24.60;78.80
28546;DHT22;15749;49.606;8.738;2022-07-30T02:56:04;24.60;78.80
28546;DHT22;15749;49.606;8.738;2022-07-30T02:58:55;24.50;78.90
28546;DHT22;15749;49.606;8.738;2022-07-30T03:01:45;24.50;79.30
28546;DHT22;15749;49.606;8.738;2022-07-30T03:04:35;24.50;78.90
28546;DHT22;15749;49.606;8.738;2022-07-30T03:07:24;24.50;78.90
28546;DHT22;15749;49.606;8.738;2022-07-30T03:10:16;24.40;78.60
28546;DHT22;15749;49.606;8.738;2022-07-30T03:13:05;24.40;78.50
28546;DHT22;15749;49.606;8.738;2022-07-30T03:15:57;24.40;78.00
28546;DHT22;15749;49.606;8.738;2022-07-30T03:18:46;24.40;78.80
28546;DHT22;15749;49.606;8.738;2022-07-30T03:21:36;24.40;78.80
28546;DHT22;15749;49.606;8.738;2022-07-30T03:24:24;24.40;78.70
28546;DHT22;15749;49.606;8.738;2022-07-30T03:27:16;24.30;78.60
28546;DHT22;15749;49.606;8.738;2022-07-30T03:30:06;24.30;78.50
28546;DHT22;15749;49.606;8.738;2022-07-30T03:32:55;24.30;78.50
28546;DHT22;15749;49.606;8.738;2022-07-30T03:35:44;24.30;78.20
28546;DHT22;15749;49.606;8.738;2022-07-30T03:38:33;24.30;78.50
28546;DHT22;15749;49.606;8.738;2022-07-30T03:41:23;24.20;78.40
28546;DHT22;15749;49.606;8.738;2022-07-30T03:44:14;24.20;78.30
28546;DHT22;15749;49.606;8.738;2022-07-30T03:47:04;24.20;78.10
28546;DHT22;15749;49.606;8.738;2022-07-30T03:50:00;24.20;77.90
28546;DHT22;15749;49.606;8.738;2022-07-30T03:52:50;24.20;77.80
28546;DHT22;15749;49.606;8.738;2022-07-30T03:55:39;24.10;77.40
28546;DHT22;15749;49.606;8.738;2022-07-30T03:58:53;24.10;77.60
28546;DHT22;15749;49.606;8.738;2022-07-30T04:01:44;24.10;77.80
28546;DHT22;15749;49.606;8.738;2022-07-30T04:04:51;24.10;78.00
28546;DHT22;15749;49.606;8.738;2022-07-30T04:07:39;24.10;78.20
28546;DHT22;15749;49.606;8.738;2022-07-30T04:10:32;24.00;77.90
28546;DHT22;15749;49.606;8.738;2022-07-30T04:13:52;24.00;78.00
28546;DHT22;15749;49.606;8.738;2022-07-30T04:16:50;24.00;78.20
28546;DHT22;15749;49.606;8.738;2022-07-30T04:19:48;24.00;78.40
28546;DHT22;15749;49.606;8.738;2022-07-30T04:22:39;24.00;78.90
28546;DHT22;15749;49.606;8.738;2022-07-30T04:25:28;23.90;78.20
28546;DHT22;15749;49.606;8.738;2022-07-30T04:28:18;23.90;78.30
28546;DHT22;15749;49.606;8.738;2022-07-30T04:31:06;23.90;77.70
28546;DHT22;15749;49.606;8.738;2022-07-30T04:33:56;23.90;78.00
28546;DHT22;15749;49.606;8.738;2022-07-30T04:36:56;23.80;78.00
28546;DHT22;15749;49.606;8.738;2022-07-30T04:39:47;23.80;78.30
28546;DHT22;15749;49.606;8.738;2022-07-30T04:42:36;23.80;78.10
28546;DHT22;15749;49.606;8.738;2022-07-30T04:45:28;23.80;77.50
28546;DHT22;15749;49.606;8.738;2022-07-30T04:48:18;23.80;76.30
28546;DHT22;15749;49.606;8.738;2022-07-30T04:51:36;23.70;76.30
28546;DHT22;15749;49.606;8.738;2022-07-30T04:54:52;23.70;77.90
28546;DHT22;15749;49.606;8.738;2022-07-30T04:57:43;23.70;78.30
28546;DHT22;15749;49.606;8.738;2022-07-30T05:00:34;23.70;77.10
28546;DHT22;15749;49.606;8.738;2022-07-30T05:03:30;23.70;76.60
28546;DHT22;15749;49.606;8.738;2022-07-30T05:06:21;23.70;76.60
28546;DHT22;15749;49.606;8.738;2022-07-30T05:09:14;23.70;77.50
28546;DHT22;15749;49.606;8.738;2022-07-30T05:12:03;23.70;78.40
28546;DHT22;15749;49.606;8.738;2022-07-30T05:14:51;23.70;77.70
28546;DHT22;15749;49.606;8.738;2022-07-30T05:17:40;23.70;76.10
28546;DHT22;15749;49.606;8.738;2022-07-30T05:20:31;23.60;77.10
28546;DHT22;15749;49.606;8.738;2022-07-30T05:23:30;23.60;76.80
28546;DHT22;15749;49.606;8.738;2022-07-30T05:26:27;23.60;77.40
28546;DHT22;15749;49.606;8.738;2022-07-30T05:29:16;23.60;77.80
28546;DHT22;15749;49.606;8.738;2022-07-30T05:32:10;23.60;77.00
28546;DHT22;15749;49.606;8.738;2022-07-30T05:34:58;23.70;76.70
28546;DHT22;15749;49.606;8.738;2022-07-30T05:37:46;23.60;76.50
28546;DHT22;15749;49.606;8.738;2022-07-30T05:40:35;23.60;76.40
28546;DHT22;15749;49.606;8.738;2022-07-30T05:43:44;23.60;77.10
28546;DHT22;15749;49.606;8.738;2022-07-30T05:46:41;23.60;77.20
28546;DHT22;15749;49.606;8.738;2022-07-30T05:49:30;23.60;76.50
28546;DHT22;15749;49.606;8.738;2022-07-30T05:52:25;23.60;77.90
28546;DHT22;15749;49.606;8.738;2022-07-30T05:55:24;23.50;77.80
28546;DHT22;15749;49.606;8.738;2022-07-30T05:58:26;23.50;77.90
28546;DHT22;15749;49.606;8.738;2022-07-30T06:01:16;23.50;78.40
28546;DHT22;15749;49.606;8.738;2022-07-30T06:04:05;23.50;78.60
28546;DHT22;15749;49.606;8.738;2022-07-30T06:07:03;23.50;79.10
28546;DHT22;15749;49.606;8.738;2022-07-30T06:09:52;23.60;79.70
28546;DHT22;15749;49.606;8.738;2022-07-30T06:12:39;23.50;80.10
28546;DHT22;15749;49.606;8.738;2022-07-30T06:15:28;23.60;80.10
28546;DHT22;15749;49.606;8.738;2022-07-30T06:18:19;23.60;80.00
28546;DHT22;15749;49.606;8.738;2022-07-30T06:21:10;23.60;79.90
28546;DHT22;15749;49.606;8.738;2022-07-30T06:24:18;23.60;79.80
28546;DHT22;15749;49.606;8.738;2022-07-30T06:27:19;23.70;79.50
28546;DHT22;15749;49.606;8.738;2022-07-30T06:30:08;23.60;80.00
28546;DHT22;15749;49.606;8.738;2022-07-30T06:32:58;23.70;81.30
28546;DHT22;15749;49.606;8.738;2022-07-30T06:35:49;23.70;80.50
28546;DHT22;15749;49.606;8.738;2022-07-30T06:38:41;23.80;81.00
28546;DHT22;15749;49.606;8.738;2022-07-30T06:41:32;23.80;79.80
28546;DHT22;15749;49.606;8.738;2022-07-30T06:44:21;23.80;80.00
28546;DHT22;15749;49.606;8.738;2022-07-30T06:47:30;23.80;80.00
28546;DHT22;15749;49.606;8.738;2022-07-30T06:50:20;23.90;79.80
28546;DHT22;15749;49.606;8.738;2022-07-30T06:53:10;23.90;80.10
28546;DHT22;15749;49.606;8.738;2022-07-30T06:56:18;24.00;80.60
28546;DHT22;15749;49.606;8.738;2022-07-30T06:59:11;24.00;80.00
28546;DHT22;15749;49.606;8.738;2022-07-30T07:02:38;24.10;79.80
28546;DHT22;15749;49.606;8.738;2022-07-30T07:05:30;24.10;79.70
28546;DHT22;15749;49.606;8.738;2022-07-30T07:08:20;24.10;79.60
28546;DHT22;15749;49.606;8.738;2022-07-30T07:11:13;24.20;79.40
28546;DHT22;15749;49.606;8.738;2022-07-30T07:14:05;24.20;78.50
28546;DHT22;15749;49.606;8.738;2022-07-30T07:16:54;24.20;78.10
28546;DHT22;15749;49.606;8.738;2022-07-30T07:20:02;24.20;78.50
28546;DHT22;15749;49.606;8.738;2022-07-30T07:22:59;24.30;79.30
28546;DHT22;15749;49.606;8.738;2022-07-30T07:25:58;24.30;78.30
28546;DHT22;15749;49.606;8.738;2022-07-30T07:28:48;24.40;79.80
28546;DHT22;15749;49.606;8.738;2022-07-30T07:31:37;24.40;77.90
28546;DHT22;15749;49.606;8.738;2022-07-30T07:34:45;24.50;78.30
28546;DHT22;15749;49.606;8.738;2022-07-30T07:37:34;24.60;78.50
28546;DHT22;15749;49.606;8.738;2022-07-30T07:40:24;24.60;78.20
28546;DHT22;15749;49.606;8.738;2022-07-30T07:43:16;24.60;78.40
28546;DHT22;15749;49.606;8.738;2022-07-30T07:46:04;24.60;79.00
28546;DHT22;15749;49.606;8.738;2022-07-30T07:48:54;24.70;79.40
28546;DHT22;15749;49.606;8.738;2022-07-30T07:51:52;24.80;78.80
28546;DHT22;15749;49.606;8.738;2022-07-30T07:54:41;24.90;78.80
28546;DHT22;15749;49.606;8.738;2022-07-30T07:57:29;24.90;78.10
28546;DHT22;15749;49.606;8.738;2022-07-30T08:00:20;25.00;78.10
28546;DHT22;15749;49.606;8.738;2022-07-30T08:03:10;25.10;77.10
28546;DHT22;15749;49.606;8.738;2022-07-30T08:05:59;25.20;77.50
28546;DHT22;15749;49.606;8.738;2022-07-30T08:09:26;25.20;77.50
28546;DHT22;15749;49.606;8.738;2022-07-30T08:13:02;25.30;76.80
28546;DHT22;15749;49.606;8.738;2022-07-30T08:16:15;25.40;76.80
28546;DHT22;15749;49.606;8.738;2022-07-30T08:19:27;25.60;76.30
28546;DHT22;15749;49.606;8.738;2022-07-30T08:22:35;25.60;76.10
28546;DHT22;15749;49.606;8.738;2022-07-30T08:25:24;25.70;77.50
28546;DHT22;15749;49.606;8.738;2022-07-30T08:28:16;25.70;76.90
28546;DHT22;15749;49.606;8.738;2022-07-30T08:31:23;25.80;77.50
28546;DHT22;15749;49.606;8.738;2022-07-30T08:34:12;25.90;74.10
28546;DHT22;15749;49.606;8.738;2022-07-30T08:37:02;26.00;75.70
28546;DHT22;15749;49.606;8.738;2022-07-30T08:39:49;26.10;76.10
28546;DHT22;15749;49.606;8.738;2022-07-30T08:42:38;26.20;75.50
28546;DHT22;15749;49.606;8.738;2022-07-30T08:45:27;26.30;76.20
28546;DHT22;15749;49.606;8.738;2022-07-30T08:48:41;26.40;75.90
28546;DHT22;15749;49.606;8.738;2022-07-30T08:51:32;26.50;75.20
28546;DHT22;15749;49.606;8.738;2022-07-30T08:54:38;26.50;76.00
28546;DHT22;15749;49.606;8.738;2022-07-30T08:57:28;26.70;75.00
28546;DHT22;15749;49.606;8.738;2022-07-30T09:00:17;26.70;74.70
28546;DHT22;15749;49.606;8.738;2022-07-30T09:03:07;26.80;74.70
28546;DHT22;15749;49.606;8.738;2022-07-30T09:05:57;26.90;74.00
28546;DHT22;15749;49.606;8.738;2022-07-30T09:08:46;26.90;73.60
28546;DHT22;15749;49.606;8.738;2022-07-30T09:11:35;27.00;73.40
28546;DHT22;15749;49.606;8.738;2022-07-30T09:14:23;27.10;73.70
28546;DHT22;15749;49.606;8.738;2022-07-30T09:17:17;27.20;74.40
28546;DHT22;15749;49.606;8.738;2022-07-30T09:20:06;27.30;72.90
28546;DHT22;15749;49.606;8.738;2022-07-30T09:22:58;27.30;74.40
28546;DHT22;15749;49.606;8.738;2022-07-30T09:26:27;27.40;74.50
28546;DHT22;15749;49.606;8.738;2022-07-30T09:29:19;27.50;74.20
28546;DHT22;15749;49.606;8.738;2022-07-30T09:32:46;27.50;73.70
28546;DHT22;15749;49.606;8.738;2022-07-30T09:36:00;27.70;73.60
28546;DHT22;15749;49.606;8.738;2022-07-30T09:39:12;27.80;73.50
28546;DHT22;15749;49.606;8.738;2022-07-30T09:42:21;27.90;73.50
28546;DHT22;15749;49.606;8.738;2022-07-30T09:45:14;27.90;73.50
28546;DHT22;15749;49.606;8.738;2022-07-30T09:48:19;27.90;73.10
28546;DHT22;15749;49.606;8.738;2022-07-30T09:51:08;28.00;72.90
28546;DHT22;15749;49.606;8.738;2022-07-30T09:54:01;28.10;73.00
28546;DHT22;15749;49.606;8.738;2022-07-30T09:57:04;28.10;72.30
28546;DHT22;15749;49.606;8.738;2022-07-30T10:00:19;28.20;72.30
28546;DHT22;15749;49.606;8.738;2022-07-30T10:03:31;28.30;72.70
28546;DHT22;15749;49.606;8.738;2022-07-30T10:06:46;28.30;71.70
28546;DHT22;15749;49.606;8.738;2022-07-30T10:09:46;28.30;71.30
28546;DHT22;15749;49.606;8.738;2022-07-30T10:12:37;28.40;71.00
28546;DHT22;15749;49.606;8.738;2022-07-30T10:15:29;28.40;71.00
28546;DHT22;15749;49.606;8.738;2022-07-30T10:18:20;28.50;69.40
28546;DHT22;15749;49.606;8.738;2022-07-30T10:21:28;28.50;70.00
28546;DHT22;15749;49.606;8.738;2022-07-30T10:24:40;28.50;68.90
28546;DHT22;15749;49.606;8.738;2022-07-30T10:27:49;28.50;68.80
28546;DHT22;15749;49.606;8.738;2022-07-30T10:30:48;28.60;70.60
28546;DHT22;15749;49.606;8.738;2022-07-30T10:33:36;28.50;70.70
28546;DHT22;15749;49.606;8.738;2022-07-30T10:36:26;28.60;70.90
28546;DHT22;15749;49.606;8.738;2022-07-30T10:39:17;28.60;68.90
28546;DHT22;15749;49.606;8.738;2022-07-30T10:42:21;28.60;68.40
28546;DHT22;15749;49.606;8.738;2022-07-30T10:45:22;28.70;68.90
28546;DHT22;15749;49.606;8.738;2022-07-30T10:48:17;28.70;68.50
28546;DHT22;15749;49.606;8.738;2022-07-30T10:51:05;28.70;69.90
28546;DHT22;15749;49.606;8.738;2022-07-30T10:53:53;28.70;69.70
28546;DHT22;15749;49.606;8.738;2022-07-30T10:56:41;28.80;70.40
28546;DHT22;15749;49.606;8.738;2022-07-30T10:59:29;28.80;69.80
28546;DHT22;15749;49.606;8.738;2022-07-30T11:03:14;28.80;69.10
28546;DHT22;15749;49.606;8.738;2022-07-30T11:06:25;28.90;67.50
28546;DHT22;15749;49.606;8.738;2022-07-30T11:09:36;28.90;68.00
28546;DHT22;15749;49.606;8.738;2022-07-30T11:12:52;28.90;66.00
28546;DHT22;15749;49.606;8.738;2022-07-30T11:15:53;28.90;66.50
28546;DHT22;15749;49.606;8.738;2022-07-30T11:19:03;28.90;67.20
28546;DHT22;15749;49.606;8.738;2022-07-30T11:22:26;29.00;66.90
28546;DHT22;15749;49.606;8.738;2022-07-30T11:25:39;29.00;66.90
28546;DHT22;15749;49.606;8.738;2022-07-30T11:28:42;29.00;67.80
28546;DHT22;15749;49.606;8.738;2022-07-30T11:31:35;29.00;66.70
28546;DHT22;15749;49.606;8.738;2022-07-30T11:34:45;29.10;67.30
28546;DHT22;15749;49.606;8.738;2022-07-30T11:37:55;29.10;67.20
28546;DHT22;15749;49.606;8.738;2022-07-30T11:41:08;29.10;64.20
28546;DHT22;15749;49.606;8.738;2022-07-30T11:44:25;29.10;63.50
28546;DHT22;15749;49.606;8.738;2022-07-30T11:47:15;29.20;63.00
28546;DHT22;15749;49.606;8.738;2022-07-30T11:50:06;29.20;63.50
28546;DHT22;15749;49.606;8.738;2022-07-30T11:52:55;29.20;64.10
28546;DHT22;15749;49.606;8.738;2022-07-30T11:55:48;29.20;63.50
28546;DHT22;15749;49.606;8.738;2022-07-30T11:58:38;29.20;64.10
28546;DHT22;15749;49.606;8.738;2022-07-30T12:01:26;29.20;63.50
28546;DHT22;15749;49.606;8.738;2022-07-30T12:04:16;29.20;63.50
28546;DHT22;15749;49.606;8.738;2022-07-30T12:07:05;29.30;63.50
28546;DHT22;15749;49.606;8.738;2022-07-30T12:09:53;29.30;63.10
28546;DHT22;15749;49.606;8.738;2022-07-30T12:12:40;29.30;61.90
28546;DHT22;15749;49.606;8.738;2022-07-30T12:15:30;29.30;63.10
28546;DHT22;15749;49.606;8.738;2022-07-30T12:18:23;29.40;62.50
28546;DHT22;15749;49.606;8.738;2022-07-30T12:21:13;29.40;61.40
28546;DHT22;15749;49.606;8.738;2022-07-30T12:24:14;29.40;62.40
28546;DHT22;15749;49.606;8.738;2022-07-30T12:27:03;29.50;61.70
28546;DHT22;15749;49.606;8.738;2022-07-30T12:29:51;29.50;61.50
28546;DHT22;15749;49.606;8.738;2022-07-30T12:32:40;29.50;61.10
28546;DHT22;15749;49.606;8.738;2022-07-30T12:35:44;29.50;60.60
28546;DHT22;15749;49.606;8.738;2022-07-30T12:38:43;29.60;61.30
28546;DHT22;15749;49.606;8.738;2022-07-30T12:41:42;29.60;61.00
28546;DHT22;15749;49.606;8.738;2022-07-30T12:44:36;29.60;59.90
28546;DHT22;15749;49.606;8.738;2022-07-30T12:47:27;29.70;59.60
28546;DHT22;15749;49.606;8.738;2022-07-30T12:50:16;29.70;59.40
28546;DHT22;15749;49.606;8.738;2022-07-30T12:53:05;29.70;59.40
28546;DHT22;15749;49.606;8.738;2022-07-30T12:55:53;29.70;60.20
28546;DHT22;15749;49.606;8.738;2022-07-30T12:58:42;29.70;61.30
28546;DHT22;15749;49.606;8.738;2022-07-30T13:01:39;29.80;61.20
28546;DHT22;15749;49.606;8.738;2022-07-30T13:04:28;29.80;59.00
28546;DHT22;15749;49.606;8.738;2022-07-30T13:07:19;29.80;59.30
28546;DHT22;15749;49.606;8.738;2022-07-30T13:10:14;29.80;59.50
28546;DHT22;15749;49.606;8.738;2022-07-30T13:13:03;29.80;58.20
28546;DHT22;15749;49.606;8.738;2022-07-30T13:16:00;29.80;58.50
28546;DHT22;15749;49.606;8.738;2022-07-30T13:18:48;29.80;59.60
28546;DHT22;15749;49.606;8.738;2022-07-30T13:21:37;29.90;60.30
28546;DHT22;15749;49.606;8.738;2022-07-30T13:24:34;29.90;59.50
28546;DHT22;15749;49.606;8.738;2022-07-30T13:27:24;29.90;60.10
28546;DHT22;15749;49.606;8.738;2022-07-30T13:30:13;29.90;58.90
28546;DHT22;15749;49.606;8.738;2022-07-30T13:33:02;29.90;60.10
28546;DHT22;15749;49.606;8.738;2022-07-30T13:35:50;29.90;59.60
28546;DHT22;15749;49.606;8.738;2022-07-30T13:38:38;30.00;60.60
28546;DHT22;15749;49.606;8.738;2022-07-30T13:41:27;30.00;59.50
28546;DHT22;15749;49.606;8.738;2022-07-30T13:44:15;30.00;58.50
28546;DHT22;15749;49.606;8.738;2022-07-30T13:47:03;30.00;59.50
28546;DHT22;15749;49.606;8.738;2022-07-30T13:49:55;30.00;59.20
28546;DHT22;15749;49.606;8.738;2022-07-30T13:52:42;30.00;58.40
28546;DHT22;15749;49.606;8.738;2022-07-30T13:55:31;30.00;59.10
28546;DHT22;15749;49.606;8.738;2022-07-30T13:58:18;30.00;57.60
28546;DHT22;15749;49.606;8.738;2022-07-30T14:01:07;30.00;58.70
28546;DHT22;15749;49.606;8.738;2022-07-30T14:04:02;30.00;58.00
28546;DHT22;15749;49.606;8.738;2022-07-30T14:06:52;30.00;58.60
28546;DHT22;15749;49.606;8.738;2022-07-30T14:09:40;30.00;58.40
28546;DHT22;15749;49.606;8.738;2022-07-30T14:12:33;30.00;58.40
28546;DHT22;15749;49.606;8.738;2022-07-30T14:15:24;30.00;58.50
28546;DHT22;15749;49.606;8.738;2022-07-30T14:18:16;30.00;56.70
28546;DHT22;15749;49.606;8.738;2022-07-30T14:21:04;30.00;58.60
28546;DHT22;15749;49.606;8.738;2022-07-30T14:23:53;30.00;57.30
28546;DHT22;15749;49.606;8.738;2022-07-30T14:26:41;30.00;58.90
28546;DHT22;15749;49.606;8.738;2022-07-30T14:29:29;30.00;57.70
28546;DHT22;15749;49.606;8.738;2022-07-30T14:32:17;30.10;56.80
28546;DHT22;15749;49.606;8.738;2022-07-30T14:35:08;30.10;55.50
28546;DHT22;15749;49.606;8.738;2022-07-30T14:37:57;30.10;56.20
28546;DHT22;15749;49.606;8.738;2022-07-30T14:40:46;30.00;56.40
28546;DHT22;15749;49.606;8.738;2022-07-30T14:43:34;30.10;55.30
28546;DHT22;15749;49.606;8.738;2022-07-30T14:46:22;30.10;55.00
28546;DHT22;15749;49.606;8.738;2022-07-30T14:49:10;30.10;55.40
28546;DHT22;15749;49.606;8.738;2022-07-30T14:52:01;30.10;56.00
28546;DHT22;15749;49.606;8.738;2022-07-30T14:54:48;30.10;56.30
28546;DHT22;15749;49.606;8.738;2022-07-30T14:57:38;30.10;56.00
28546;DHT22;15749;49.606;8.738;2022-07-30T15:00:26;30.10;54.90
28546;DHT22;15749;49.606;8.738;2022-07-30T15:03:33;30.10;54.60
28546;DHT22;15749;49.606;8.738;2022-07-30T15:06:21;30.10;54.70
28546;DHT22;15749;49.606;8.738;2022-07-30T15:09:09;30.10;55.00
28546;DHT22;15749;49.606;8.738;2022-07-30T15:11:57;30.20;54.10
28546;DHT22;15749;49.606;8.738;2022-07-30T15:15:08;30.20;54.70
28546;DHT22;15749;49.606;8.738;2022-07-30T15:17:57;30.20;54.40
28546;DHT22;15749;49.606;8.738;2022-07-30T15:20:45;30.20;55.90
28546;DHT22;15749;49.606;8.738;2022-07-30T15:23:32;30.20;54.80
28546;DHT22;15749;49.606;8.738;2022-07-30T15:26:20;30.20;55.30
28546;DHT22;15749;49.606;8.738;2022-07-30T15:29:09;30.20;56.40
28546;DHT22;15749;49.606;8.738;2022-07-30T15:32:00;30.20;56.10
28546;DHT22;15749;49.606;8.738;2022-07-30T15:34:48;30.20;55.80
28546;DHT22;15749;49.606;8.738;2022-07-30T15:37:36;30.20;55.00
28546;DHT22;15749;49.606;8.738;2022-07-30T15:40:25;30.20;54.60
28546;DHT22;15749;49.606;8.738;2022-07-30T15:43:13;30.20;55.10
28546;DHT22;15749;49.606;8.738;2022-07-30T15:46:04;30.20;54.60
28546;DHT22;15749;49.606;8.738;2022-07-30T15:48:53;30.20;55.70
28546;DHT22;15749;49.606;8.738;2022-07-30T15:51:42;30.20;56.20
28546;DHT22;15749;49.606;8.738;2022-07-30T15:54:33;30.20;56.10
28546;DHT22;15749;49.606;8.738;2022-07-30T15:57:21;30.30;55.30
28546;DHT22;15749;49.606;8.738;2022-07-30T16:00:10;30.20;55.10
28546;DHT22;15749;49.606;8.738;2022-07-30T16:03:00;30.20;54.70
28546;DHT22;15749;49.606;8.738;2022-07-30T16:05:54;30.20;54.80
28546;DHT22;15749;49.606;8.738;2022-07-30T16:08:42;30.20;54.80
28546;DHT22;15749;49.606;8.738;2022-07-30T16:11:37;30.20;54.60
28546;DHT22;15749;49.606;8.738;2022-07-30T16:14:27;30.20;55.50
28546;DHT22;15749;49.606;8.738;2022-07-30T16:17:15;30.20;55.20
28546;DHT22;15749;49.606;8.738;2022-07-30T16:20:03;30.20;55.60
28546;DHT22;15749;49.606;8.738;2022-07-30T16:22:53;30.20;56.00
28546;DHT22;15749;49.606;8.738;2022-07-30T16:25:41;30.20;55.60
28546;DHT22;15749;49.606;8.738;2022-07-30T16:28:29;30.20;56.30
28546;DHT22;15749;49.606;8.738;2022-07-30T16:31:17;30.20;55.80
28546;DHT22;15749;49.606;8.738;2022-07-30T16:34:05;30.20;56.00
28546;DHT22;15749;49.606;8.738;2022-07-30T16:36:53;30.20;55.40
28546;DHT22;15749;49.606;8.738;2022-07-30T16:39:43;30.20;56.10
28546;DHT22;15749;49.606;8.738;2022-07-30T16:42:31;30.20;56.00
28546;DHT22;15749;49.606;8.738;2022-07-30T16:45:19;30.20;56.20
28546;DHT22;15749;49.606;8.738;2022-07-30T16:48:07;30.20;56.90
28546;DHT22;15749;49.606;8.738;2022-07-30T16:50:56;30.20;56.20
28546;DHT22;15749;49.606;8.738;2022-07-30T16:53:44;30.20;56.90
28546;DHT22;15749;49.606;8.738;2022-07-30T16:56:35;30.20;56.70
28546;DHT22;15749;49.606;8.738;2022-07-30T16:59:22;30.20;57.00
28546;DHT22;15749;49.606;8.738;2022-07-30T17:02:11;30.20;56.80
28546;DHT22;15749;49.606;8.738;2022-07-30T17:04:59;30.20;56.80
28546;DHT22;15749;49.606;8.738;2022-07-30T17:07:46;30.20;56.10
28546;DHT22;15749;49.606;8.738;2022-07-30T17:10:34;30.10;56.00
28546;DHT22;15749;49.606;8.738;2022-07-30T17:13:27;30.10;56.20
28546;DHT22;15749;49.606;8.738;2022-07-30T17:16:15;30.10;55.80
28546;DHT22;15749;49.606;8.738;2022-07-30T17:19:06;30.10;56.00
28546;DHT22;15749;49.606;8.738;2022-07-30T17:21:54;30.10;56.00
28546;DHT22;15749;49.606;8.738;2022-07-30T17:24:43;30.10;55.50
28546;DHT22;15749;49.606;8.738;2022-07-30T17:27:30;30.00;55.70
28546;DHT22;15749;49.606;8.738;2022-07-30T17:30:20;30.00;55.10
28546;DHT22;15749;49.606;8.738;2022-07-30T17:33:09;30.00;55.20
28546;DHT22;15749;49.606;8.738;2022-07-30T17:35:56;30.00;55.60
28546;DHT22;15749;49.606;8.738;2022-07-30T17:38:44;30.00;55.80
28546;DHT22;15749;49.606;8.738;2022-07-30T17:41:32;30.00;56.00
28546;DHT22;15749;49.606;8.738;2022-07-30T17:44:41;30.00;56.50
28546;DHT22;15749;49.606;8.738;2022-07-30T17:47:30;30.00;56.10
28546;DHT22;15749;49.606;8.738;2022-07-30T17:50:19;29.90;55.80
28546;DHT22;15749;49.606;8.738;2022-07-30T17:53:10;29.90;55.00
28546;DHT22;15749;49.606;8.738;2022-07-30T17:55:58;29.90;55.30
28546;DHT22;15749;49.606;8.738;2022-07-30T17:58:46;29.80;55.30
28546;DHT22;15749;49.606;8.738;2022-07-30T18:01:36;29.80;55.10
28546;DHT22;15749;49.606;8.738;2022-07-30T18:04:26;29.80;55.70
28546;DHT22;15749;49.606;8.738;2022-07-30T18:07:13;29.80;55.90
28546;DHT22;15749;49.606;8.738;2022-07-30T18:10:02;29.80;55.70
28546;DHT22;15749;49.606;8.738;2022-07-30T18:12:50;29.70;55.30
28546;DHT22;15749;49.606;8.738;2022-07-30T18:15:38;29.70;55.60